sensor_id;sensor_type;location;lat;lon;timestamp;temperature;humidity
4631;DHT22;2328;48.170;11.602;2022-10-28T07:14:33;11.30;99.90
4631;DHT22;2328;48.170;11.602;2022-10-28T07:17:03;11.50;99.90
4631;DHT22;2328;48.170;11.602;2022-10-28T07:19:33;11.80;99.90
4631;DHT22;2328;48.170;11.602;2022-10-28T07:22:01;12.10;99.90
4631;DHT22;2328;48.170;11.602;2022-10-28T07:24:30;12.50;99.90
4631;DHT22;2328;48.170;11.602;2022-10-28T07:27:00;12.90;99.90
4631;DHT22;2328;48.170;11.602;2022-10-28T07:29:29;13.30;99.90
4631;DHT22;2328;48.170;11.602;2022-10-28T07:32:06;13.60;99.90
4631;DHT22;2328;48.170;11.602;2022-10-28T07:34:37;13.90;99.90
4631;DHT22;2328;48.170;11.602;2022-10-28T07:37:06;14.10;99.90
4631;DHT22;2328;48.170;11.602;2022-10-28T07:39:36;14.30;99.90
4631;DHT22;2328;48.170;11.602;2022-10-28T07:42:06;14.80;99.90
4631;DHT22;2328;48.170;11.602;2022-10-28T07:44:42;15.20;99.90
4631;DHT22;2328;48.170;11.602;2022-10-28T07:47:17;15.60;99.90
4631;DHT22;2328;48.170;11.602;2022-10-28T07:49:50;16.00;99.90
4631;DHT22;2328;48.170;11.602;2022-10-28T07:52:24;16.40;99.90
4631;DHT22;2328;48.170;11.602;2022-10-28T07:54:55;16.70;99.90
4631;DHT22;2328;48.170;11.602;2022-10-28T07:57:26;16.90;99.90
4631;DHT22;2328;48.170;11.602;2022-10-28T08:00:05;17.10;99.90
4631;DHT22;2328;48.170;11.602;2022-10-28T08:02:37;17.50;99.90
4631;DHT22;2328;48.170;11.602;2022-10-28T08:05:06;17.70;99.90
4631;DHT22;2328;48.170;11.602;2022-10-28T08:07:36;17.60;99.90
4631;DHT22;2328;48.170;11.602;2022-10-28T08:10:06;17.30;99.90
4631;DHT22;2328;48.170;11.602;2022-10-28T08:12:35;17.20;99.90
4631;DHT22;2328;48.170;11.602;2022-10-28T08:15:05;17.00;99.90
4631;DHT22;2328;48.170;11.602;2022-10-28T08:17:36;17.00;99.90
4631;DHT22;2328;48.170;11.602;2022-10-28T08:20:05;17.00;99.90
4631;DHT22;2328;48.170;11.602;2022-10-28T08:22:34;17.00;99.90
4631;DHT22;2328;48.170;11.602;2022-10-28T08:25:02;17.20;99.90
4631;DHT22;2328;48.170;11.602;2022-10-28T08:27:32;17.40;99.90
4631;DHT22;2328;48.170;11.602;2022-10-28T08:30:00;17.40;99.90
4631;DHT22;2328;48.170;11.602;2022-10-28T08:32:28;17.50;99.90
4631;DHT22;2328;48.170;11.602;2022-10-28T08:34:58;17.50;99.90
4631;DHT22;2328;48.170;11.602;2022-10-28T08:37:26;17.60;99.90
4631;DHT22;2328;48.170;11.602;2022-10-28T08:39:54;17.60;99.90
4631;DHT22;2328;48.170;11.602;2022-10-28T08:42:35;17.60;99.90
4631;DHT22;2328;48.170;11.602;2022-10-28T08:45:19;17.50;99.90
4631;DHT22;2328;48.170;11.602;2022-10-28T08:48:14;17.50;99.90
4631;DHT22;2328;48.170;11.602;2022-10-28T08:50:50;17.50;99.90
4631;DHT22;2328;48.170;11.602;2022-10-28T08:53:24;17.50;99.90
4631;DHT22;2328;48.170;11.602;2022-10-28T08:55:58;17.50;99.90
4631;DHT22;2328;48.170;11.602;2022-10-28T08:58:33;17.60;99.90
4631;DHT22;2328;48.170;11.602;2022-10-28T09:01:04;17.60;99.90
4631;DHT22;2328;48.170;11.602;2022-10-28T09:03:38;17.70;99.90
4631;DHT22;2328;48.170;11.602;2022-10-28T09:06:09;17.80;99.90
4631;DHT22;2328;48.170;11.602;2022-10-28T09:08:40;17.80;99.90
4631;DHT22;2328;48.170;11.602;2022-10-28T09:11:35;17.90;99.90
4631;DHT22;2328;48.170;11.602;2022-10-28T09:14:23;18.00;99.90
4631;DHT22;2328;48.170;11.602;2022-10-28T09:17:06;18.20;99.90
4631;DHT22;2328;48.170;11.602;2022-10-28T09:19:44;18.20;99.90
4631;DHT22;2328;48.170;11.602;2022-10-28T09:22:35;18.30;99.90
4631;DHT22;2328;48.170;11.602;2022-10-28T09:25:12;18.40;99.90
4631;DHT22;2328;48.170;11.602;2022-10-28T09:28:09;18.40;99.90
4631;DHT22;2328;48.170;11.602;2022-10-28T09:30:49;18.50;99.90
4631;DHT22;2328;48.170;11.602;2022-10-28T09:33:37;18.50;99.90
4631;DHT22;2328;48.170;11.602;2022-10-28T09:36:11;18.50;99.90
4631;DHT22;2328;48.170;11.602;2022-10-28T09:38:43;18.60;99.90
4631;DHT22;2328;48.170;11.602;2022-10-28T09:41:15;18.60;99.90
4631;DHT22;2328;48.170;11.602;2022-10-28T09:43:48;18.80;99.90
4631;DHT22;2328;48.170;11.602;2022-10-28T09:46:18;18.90;99.90
4631;DHT22;2328;48.170;11.602;2022-10-28T09:48:47;19.00;99.90
4631;DHT22;2328;48.170;11.602;2022-10-28T09:51:25;19.00;99.90
4631;DHT22;2328;48.170;11.602;2022-10-28T09:53:58;19.10;99.90
4631;DHT22;2328;48.170;11.602;2022-10-28T09:56:28;19.10;99.90
4631;DHT22;2328;48.170;11.602;2022-10-28T09:58:58;19.30;99.90
4631;DHT22;2328;48.170;11.602;2022-10-28T10:01:31;19.60;99.90
4631;DHT22;2328;48.170;11.602;2022-10-28T10:04:00;19.80;99.90
4631;DHT22;2328;48.170;11.602;2022-10-28T10:06:32;20.00;99.90
4631;DHT22;2328;48.170;11.602;2022-10-28T10:09:03;20.00;99.90
4631;DHT22;2328;48.170;11.602;2022-10-28T10:11:36;20.10;99.90
4631;DHT22;2328;48.170;11.602;2022-10-28T10:14:11;20.30;99.90
4631;DHT22;2328;48.170;11.602;2022-10-28T10:16:44;20.40;99.90
4631;DHT22;2328;48.170;11.602;2022-10-28T10:19:13;20.60;99.90
4631;DHT22;2328;48.170;11.602;2022-10-28T10:21:44;20.70;99.90
4631;DHT22;2328;48.170;11.602;2022-10-28T10:24:25;20.90;99.90
4631;DHT22;2328;48.170;11.602;2022-10-28T10:26:56;21.00;99.90
4631;DHT22;2328;48.170;11.602;2022-10-28T10:29:24;21.00;99.90
4631;DHT22;2328;48.170;11.602;2022-10-28T10:32:13;21.00;99.90
4631;DHT22;2328;48.170;11.602;2022-10-28T10:34:44;21.10;99.90
4631;DHT22;2328;48.170;11.602;2022-10-28T10:37:18;21.10;99.90
4631;DHT22;2328;48.170;11.602;2022-10-28T10:40:00;21.30;99.90
4631;DHT22;2328;48.170;11.602;2022-10-28T10:42:28;21.50;99.90
4631;DHT22;2328;48.170;11.602;2022-10-28T10:44:59;21.70;99.90
4631;DHT22;2328;48.170;11.602;2022-10-28T10:47:28;22.00;99.90
4631;DHT22;2328;48.170;11.602;2022-10-28T10:50:18;22.30;99.90
4631;DHT22;2328;48.170;11.602;2022-10-28T10:52:52;22.60;99.90
4631;DHT22;2328;48.170;11.602;2022-10-28T10:55:29;22.80;99.90
4631;DHT22;2328;48.170;11.602;2022-10-28T10:57:59;22.90;99.90
4631;DHT22;2328;48.170;11.602;2022-10-28T11:00:31;22.90;99.90
4631;DHT22;2328;48.170;11.602;2022-10-28T11:03:00;22.80;99.90
4631;DHT22;2328;48.170;11.602;2022-10-28T11:05:30;22.70;99.90
4631;DHT22;2328;48.170;11.602;2022-10-28T11:08:23;22.60;99.90
4631;DHT22;2328;48.170;11.602;2022-10-28T11:11:07;22.40;99.90
4631;DHT22;2328;48.170;11.602;2022-10-28T11:13:36;22.40;99.90
4631;DHT22;2328;48.170;11.602;2022-10-28T11:16:19;22.30;99.90
4631;DHT22;2328;48.170;11.602;2022-10-28T11:18:50;22.20;99.90
4631;DHT22;2328;48.170;11.602;2022-10-28T11:21:40;22.10;99.90
4631;DHT22;2328;48.170;11.602;2022-10-28T11:24:34;22.10;99.90
4631;DHT22;2328;48.170;11.602;2022-10-28T11:27:16;22.10;99.90
4631;DHT22;2328;48.170;11.602;2022-10-28T11:29:47;22.20;99.90
4631;DHT22;2328;48.170;11.602;2022-10-28T11:32:35;22.30;99.90
4631;DHT22;2328;48.170;11.602;2022-10-28T11:35:38;22.50;99.90
4631;DHT22;2328;48.170;11.602;2022-10-28T11:41:09;22.90;99.90
4631;DHT22;2328;48.170;11.602;2022-10-28T11:43:48;23.20;99.90
4631;DHT22;2328;48.170;11.602;2022-10-28T11:46:31;23.40;99.90
4631;DHT22;2328;48.170;11.602;2022-10-28T11:49:36;23.60;99.90
4631;DHT22;2328;48.170;11.602;2022-10-28T11:52:16;23.90;99.90
4631;DHT22;2328;48.170;11.602;2022-10-28T11:54:57;24.10;99.90
4631;DHT22;2328;48.170;11.602;2022-10-28T11:57:37;24.40;99.90
4631;DHT22;2328;48.170;11.602;2022-10-28T12:00:24;24.60;99.90
4631;DHT22;2328;48.170;11.602;2022-10-28T12:03:21;24.70;99.90
4631;DHT22;2328;48.170;11.602;2022-10-28T12:06:03;25.00;99.90
4631;DHT22;2328;48.170;11.602;2022-10-28T12:08:44;25.60;99.90
4631;DHT22;2328;48.170;11.602;2022-10-28T12:11:24;26.10;99.90
4631;DHT22;2328;48.170;11.602;2022-10-28T12:14:01;26.20;99.90
4631;DHT22;2328;48.170;11.602;2022-10-28T12:16:36;26.00;99.90
4631;DHT22;2328;48.170;11.602;2022-10-28T12:19:11;25.90;99.90
4631;DHT22;2328;48.170;11.602;2022-10-28T12:21:55;25.80;99.90
4631;DHT22;2328;48.170;11.602;2022-10-28T12:24:24;25.70;99.90
4631;DHT22;2328;48.170;11.602;2022-10-28T12:26:55;25.40;99.90
4631;DHT22;2328;48.170;11.602;2022-10-28T12:29:25;25.10;99.90
4631;DHT22;2328;48.170;11.602;2022-10-28T12:31:57;24.80;99.90
4631;DHT22;2328;48.170;11.602;2022-10-28T12:34:31;24.60;99.90
4631;DHT22;2328;48.170;11.602;2022-10-28T12:37:03;24.40;99.90
4631;DHT22;2328;48.170;11.602;2022-10-28T12:39:35;24.30;99.90
4631;DHT22;2328;48.170;11.602;2022-10-28T12:42:10;24.30;99.90
4631;DHT22;2328;48.170;11.602;2022-10-28T12:44:39;24.40;99.90
4631;DHT22;2328;48.170;11.602;2022-10-28T12:47:16;24.50;99.90
4631;DHT22;2328;48.170;11.602;2022-10-28T12:49:54;24.60;99.90
4631;DHT22;2328;48.170;11.602;2022-10-28T12:52:32;24.90;99.90
4631;DHT22;2328;48.170;11.602;2022-10-28T12:55:13;25.30;99.90
4631;DHT22;2328;48.170;11.602;2022-10-28T12:57:44;25.40;99.90
4631;DHT22;2328;48.170;11.602;2022-10-28T13:00:18;25.30;99.90
4631;DHT22;2328;48.170;11.602;2022-10-28T13:02:57;25.20;99.90
4631;DHT22;2328;48.170;11.602;2022-10-28T13:05:30;24.90;99.90
4631;DHT22;2328;48.170;11.602;2022-10-28T13:11:43;24.40;99.90
4631;DHT22;2328;48.170;11.602;2022-10-28T13:14:24;24.30;99.90
4631;DHT22;2328;48.170;11.602;2022-10-28T13:17:10;24.20;99.90
4631;DHT22;2328;48.170;11.602;2022-10-28T13:19:52;24.10;99.90
4631;DHT22;2328;48.170;11.602;2022-10-28T13:22:39;24.10;99.90
4631;DHT22;2328;48.170;11.602;2022-10-28T13:25:25;24.10;99.90
4631;DHT22;2328;48.170;11.602;2022-10-28T13:27:55;24.10;99.90
4631;DHT22;2328;48.170;11.602;2022-10-28T13:30:25;24.10;99.90
4631;DHT22;2328;48.170;11.602;2022-10-28T13:33:00;24.10;99.90
4631;DHT22;2328;48.170;11.602;2022-10-28T13:35:30;24.10;99.90
4631;DHT22;2328;48.170;11.602;2022-10-28T13:38:00;24.10;99.90
4631;DHT22;2328;48.170;11.602;2022-10-28T13:43:57;24.20;99.90
4631;DHT22;2328;48.170;11.602;2022-10-28T13:47:00;24.20;99.90
4631;DHT22;2328;48.170;11.602;2022-10-28T13:49:29;24.20;99.90
4631;DHT22;2328;48.170;11.602;2022-10-28T13:52:03;24.10;99.90
4631;DHT22;2328;48.170;11.602;2022-10-28T13:54:55;24.10;99.90
4631;DHT22;2328;48.170;11.602;2022-10-28T13:57:26;24.00;99.90
4631;DHT22;2328;48.170;11.602;2022-10-28T13:59:58;23.90;99.90
4631;DHT22;2328;48.170;11.602;2022-10-28T14:02:28;23.90;99.90
4631;DHT22;2328;48.170;11.602;2022-10-28T14:05:04;23.80;99.90
4631;DHT22;2328;48.170;11.602;2022-10-28T14:07:35;23.70;99.90
4631;DHT22;2328;48.170;11.602;2022-10-28T14:10:16;23.50;99.90
4631;DHT22;2328;48.170;11.602;2022-10-28T14:12:51;23.30;99.90
4631;DHT22;2328;48.170;11.602;2022-10-28T14:15:36;23.20;99.90
4631;DHT22;2328;48.170;11.602;2022-10-28T14:18:19;23.20;99.90
4631;DHT22;2328;48.170;11.602;2022-10-28T14:21:12;23.10;99.90
4631;DHT22;2328;48.170;11.602;2022-10-28T14:24:11;23.00;99.90
4631;DHT22;2328;48.170;11.602;2022-10-28T14:30:15;23.00;99.90
4631;DHT22;2328;48.170;11.602;2022-10-28T14:32:56;23.10;99.90
4631;DHT22;2328;48.170;11.602;2022-10-28T14:35:31;23.30;99.90
4631;DHT22;2328;48.170;11.602;2022-10-28T14:38:31;23.40;99.90
4631;DHT22;2328;48.170;11.602;2022-10-28T14:41:19;23.40;99.90
4631;DHT22;2328;48.170;11.602;2022-10-28T14:44:03;23.20;99.90
4631;DHT22;2328;48.170;11.602;2022-10-28T14:49:58;22.80;99.90
4631;DHT22;2328;48.170;11.602;2022-10-28T14:52:30;22.60;99.90
4631;DHT22;2328;48.170;11.602;2022-10-28T14:55:05;22.50;99.90
4631;DHT22;2328;48.170;11.602;2022-10-28T14:57:43;22.40;99.90
4631;DHT22;2328;48.170;11.602;2022-10-28T15:00:17;22.20;99.90
4631;DHT22;2328;48.170;11.602;2022-10-28T15:02:50;22.10;99.90
4631;DHT22;2328;48.170;11.602;2022-10-28T15:05:30;21.90;99.90
4631;DHT22;2328;48.170;11.602;2022-10-28T15:08:02;21.80;99.90
4631;DHT22;2328;48.170;11.602;2022-10-28T15:10:33;21.70;99.90
4631;DHT22;2328;48.170;11.602;2022-10-28T15:13:14;21.50;99.90
4631;DHT22;2328;48.170;11.602;2022-10-28T15:15:51;21.50;99.90
4631;DHT22;2328;48.170;11.602;2022-10-28T15:18:22;21.40;99.90
4631;DHT22;2328;48.170;11.602;2022-10-28T15:21:17;21.30;99.90
4631;DHT22;2328;48.170;11.602;2022-10-28T15:23:58;21.20;99.90
4631;DHT22;2328;48.170;11.602;2022-10-28T15:26:26;21.10;99.90
4631;DHT22;2328;48.170;11.602;2022-10-28T15:28:57;20.90;99.90
4631;DHT22;2328;48.170;11.602;2022-10-28T15:31:26;20.80;99.90
4631;DHT22;2328;48.170;11.602;2022-10-28T15:33:55;20.80;99.90
4631;DHT22;2328;48.170;11.602;2022-10-28T15:36:25;20.60;99.90
4631;DHT22;2328;48.170;11.602;2022-10-28T15:39:05;20.50;99.90
4631;DHT22;2328;48.170;11.602;2022-10-28T15:41:41;20.30;99.90
4631;DHT22;2328;48.170;11.602;2022-10-28T15:44:33;20.10;99.90
4631;DHT22;2328;48.170;11.602;2022-10-28T15:47:17;20.00;99.90
4631;DHT22;2328;48.170;11.602;2022-10-28T15:52:40;19.50;99.90
4631;DHT22;2328;48.170;11.602;2022-10-28T15:55:30;19.30;99.90
4631;DHT22;2328;48.170;11.602;2022-10-28T15:58:33;19.10;99.90
4631;DHT22;2328;48.170;11.602;2022-10-28T16:01:07;18.90;99.90
4631;DHT22;2328;48.170;11.602;2022-10-28T16:03:43;18.80;99.90
4631;DHT22;2328;48.170;11.602;2022-10-28T16:06:25;18.70;99.90
4631;DHT22;2328;48.170;11.602;2022-10-28T16:09:10;18.50;99.90
4631;DHT22;2328;48.170;11.602;2022-10-28T16:11:45;18.30;99.90
4631;DHT22;2328;48.170;11.602;2022-10-28T16:14:27;18.20;99.90
4631;DHT22;2328;48.170;11.602;2022-10-28T16:17:05;18.10;99.90
4631;DHT22;2328;48.170;11.602;2022-10-28T16:19:39;17.90;99.90
4631;DHT22;2328;48.170;11.602;2022-10-28T16:22:11;17.80;99.90
4631;DHT22;2328;48.170;11.602;2022-10-28T16:24:40;17.60;99.90
4631;DHT22;2328;48.170;11.602;2022-10-28T16:27:15;17.60;99.90
4631;DHT22;2328;48.170;11.602;2022-10-28T16:29:43;17.50;99.90
4631;DHT22;2328;48.170;11.602;2022-10-28T16:32:14;17.40;99.90
4631;DHT22;2328;48.170;11.602;2022-10-28T16:34:43;17.40;99.90
4631;DHT22;2328;48.170;11.602;2022-10-28T16:37:23;17.30;99.90
4631;DHT22;2328;48.170;11.602;2022-10-28T16:39:53;17.20;99.90
4631;DHT22;2328;48.170;11.602;2022-10-28T16:42:21;17.20;99.90
4631;DHT22;2328;48.170;11.602;2022-10-28T16:44:51;17.20;99.90
4631;DHT22;2328;48.170;11.602;2022-10-28T16:47:21;17.10;99.90
4631;DHT22;2328;48.170;11.602;2022-10-28T16:49:52;17.00;99.90
4631;DHT22;2328;48.170;11.602;2022-10-28T16:52:25;17.00;99.90
4631;DHT22;2328;48.170;11.602;2022-10-28T16:54:55;17.00;99.90
4631;DHT22;2328;48.170;11.602;2022-10-28T16:57:24;17.10;99.90
4631;DHT22;2328;48.170;11.602;2022-10-28T16:59:53;17.00;99.90
4631;DHT22;2328;48.170;11.602;2022-10-28T17:02:25;17.00;99.90
4631;DHT22;2328;48.170;11.602;2022-10-28T17:04:55;16.90;99.90
4631;DHT22;2328;48.170;11.602;2022-10-28T17:07:24;16.80;99.90
4631;DHT22;2328;48.170;11.602;2022-10-28T17:09:53;16.70;99.90
4631;DHT22;2328;48.170;11.602;2022-10-28T17:12:24;16.70;99.90
4631;DHT22;2328;48.170;11.602;2022-10-28T17:14:52;16.60;99.90
4631;DHT22;2328;48.170;11.602;2022-10-28T17:17:21;16.50;99.90
4631;DHT22;2328;48.170;11.602;2022-10-28T17:19:51;16.40;99.90
4631;DHT22;2328;48.170;11.602;2022-10-28T17:22:19;16.40;99.90
4631;DHT22;2328;48.170;11.602;2022-10-28T17:24:49;16.30;99.90
4631;DHT22;2328;48.170;11.602;2022-10-28T17:27:18;16.20;99.90
4631;DHT22;2328;48.170;11.602;2022-10-28T17:29:47;16.10;99.90
4631;DHT22;2328;48.170;11.602;2022-10-28T17:32:15;16.00;99.90
4631;DHT22;2328;48.170;11.602;2022-10-28T17:34:46;16.00;99.90
4631;DHT22;2328;48.170;11.602;2022-10-28T17:37:16;15.90;99.90
4631;DHT22;2328;48.170;11.602;2022-10-28T17:39:44;15.90;99.90
4631;DHT22;2328;48.170;11.602;2022-10-28T17:42:13;15.80;99.90
4631;DHT22;2328;48.170;11.602;2022-10-28T17:44:41;15.70;99.90
4631;DHT22;2328;48.170;11.602;2022-10-28T17:47:09;15.70;99.90
4631;DHT22;2328;48.170;11.602;2022-10-28T17:49:39;15.60;99.90
4631;DHT22;2328;48.170;11.602;2022-10-28T17:52:08;15.60;99.90
4631;DHT22;2328;48.170;11.602;2022-10-28T17:54:37;15.50;99.90
4631;DHT22;2328;48.170;11.602;2022-10-28T17:57:05;15.40;99.90
4631;DHT22;2328;48.170;11.602;2022-10-28T17:59:34;15.30;99.90
4631;DHT22;2328;48.170;11.602;2022-10-28T18:02:02;15.30;99.90
4631;DHT22;2328;48.170;11.602;2022-10-28T18:04:31;15.20;99.90
4631;DHT22;2328;48.170;11.602;2022-10-28T18:06:59;15.20;99.90
4631;DHT22;2328;48.170;11.602;2022-10-28T18:09:28;15.20;99.90
4631;DHT22;2328;48.170;11.602;2022-10-28T18:12:00;15.20;99.90
4631;DHT22;2328;48.170;11.602;2022-10-28T18:14:28;15.20;99.90
4631;DHT22;2328;48.170;11.602;2022-10-28T18:16:57;15.20;99.90
4631;DHT22;2328;48.170;11.602;2022-10-28T18:19:25;15.20;99.90
4631;DHT22;2328;48.170;11.602;2022-10-28T18:21:54;15.20;99.90
4631;DHT22;2328;48.170;11.602;2022-10-28T18:24:22;15.20;99.90
4631;DHT22;2328;48.170;11.602;2022-10-28T18:26:53;15.20;99.90
4631;DHT22;2328;48.170;11.602;2022-10-28T18:29:25;15.20;99.90
4631;DHT22;2328;48.170;11.602;2022-10-28T18:31:53;15.10;99.90
4631;DHT22;2328;48.170;11.602;2022-10-28T18:34:22;15.20;99.90
4631;DHT22;2328;48.170;11.602;2022-10-28T18:36:52;15.10;99.90
4631;DHT22;2328;48.170;11.602;2022-10-28T18:39:20;15.10;99.90
4631;DHT22;2328;48.170;11.602;2022-10-28T18:41:49;15.10;99.90
4631;DHT22;2328;48.170;11.602;2022-10-28T18:44:17;15.00;99.90
4631;DHT22;2328;48.170;11.602;2022-10-28T18:46:54;15.00;99.90
4631;DHT22;2328;48.170;11.602;2022-10-28T18:49:22;15.00;99.90
4631;DHT22;2328;48.170;11.602;2022-10-28T18:51:53;15.00;99.90
4631;DHT22;2328;48.170;11.602;2022-10-28T18:54:21;14.90;99.90
4631;DHT22;2328;48.170;11.602;2022-10-28T18:56:51;14.90;99.90
4631;DHT22;2328;48.170;11.602;2022-10-28T18:59:24;15.00;99.90
4631;DHT22;2328;48.170;11.602;2022-10-28T19:02:16;15.00;99.90
4631;DHT22;2328;48.170;11.602;2022-10-28T19:04:44;15.00;99.90
4631;DHT22;2328;48.170;11.602;2022-10-28T19:07:15;15.00;99.90
4631;DHT22;2328;48.170;11.602;2022-10-28T19:09:45;15.00;99.90
4631;DHT22;2328;48.170;11.602;2022-10-28T19:12:15;15.00;99.90
4631;DHT22;2328;48.170;11.602;2022-10-28T19:14:44;14.90;99.90
4631;DHT22;2328;48.170;11.602;2022-10-28T19:17:14;14.90;99.90
4631;DHT22;2328;48.170;11.602;2022-10-28T19:19:43;14.90;99.90
4631;DHT22;2328;48.170;11.602;2022-10-28T19:22:12;14.90;99.90
4631;DHT22;2328;48.170;11.602;2022-10-28T19:24:41;14.90;99.90
4631;DHT22;2328;48.170;11.602;2022-10-28T19:27:10;14.90;99.90
4631;DHT22;2328;48.170;11.602;2022-10-28T19:29:41;14.90;99.90
4631;DHT22;2328;48.170;11.602;2022-10-28T19:32:19;15.00;99.90
4631;DHT22;2328;48.170;11.602;2022-10-28T19:34:47;15.00;99.90
4631;DHT22;2328;48.170;11.602;2022-10-28T19:37:17;15.00;99.90
4631;DHT22;2328;48.170;11.602;2022-10-28T19:39:47;15.00;99.90
4631;DHT22;2328;48.170;11.602;2022-10-28T19:42:22;15.00;99.90
4631;DHT22;2328;48.170;11.602;2022-10-28T19:44:53;14.90;99.90
4631;DHT22;2328;48.170;11.602;2022-10-28T19:47:23;15.00;99.90
4631;DHT22;2328;48.170;11.602;2022-10-28T19:49:51;14.90;99.90
4631;DHT22;2328;48.170;11.602;2022-10-28T19:52:19;14.90;99.90
4631;DHT22;2328;48.170;11.602;2022-10-28T19:54:49;14.90;99.90
4631;DHT22;2328;48.170;11.602;2022-10-28T19:57:18;14.90;99.90
4631;DHT22;2328;48.170;11.602;2022-10-28T19:59:46;14.90;99.90
4631;DHT22;2328;48.170;11.602;2022-10-28T20:02:30;14.80;99.90
4631;DHT22;2328;48.170;11.602;2022-10-28T20:05:03;14.80;99.90
4631;DHT22;2328;48.170;11.602;2022-10-28T20:07:32;14.80;99.90
4631;DHT22;2328;48.170;11.602;2022-10-28T20:10:00;14.70;99.90
4631;DHT22;2328;48.170;11.602;2022-10-28T20:12:30;14.70;99.90
4631;DHT22;2328;48.170;11.602;2022-10-28T20:14:58;14.60;99.90
4631;DHT22;2328;48.170;11.602;2022-10-28T20:17:31;14.50;99.90
4631;DHT22;2328;48.170;11.602;2022-10-28T20:20:01;14.50;99.90
4631;DHT22;2328;48.170;11.602;2022-10-28T20:22:32;14.50;99.90
4631;DHT22;2328;48.170;11.602;2022-10-28T20:25:08;14.50;99.90
4631;DHT22;2328;48.170;11.602;2022-10-28T20:27:37;14.50;99.90
4631;DHT22;2328;48.170;11.602;2022-10-28T20:30:15;14.40;99.90
4631;DHT22;2328;48.170;11.602;2022-10-28T20:32:46;14.40;99.90
4631;DHT22;2328;48.170;11.602;2022-10-28T20:35:23;14.40;99.90
4631;DHT22;2328;48.170;11.602;2022-10-28T20:37:53;14.40;99.90
4631;DHT22;2328;48.170;11.602;2022-10-28T20:40:26;14.30;99.90
4631;DHT22;2328;48.170;11.602;2022-10-28T20:42:55;14.30;99.90
4631;DHT22;2328;48.170;11.602;2022-10-28T20:45:24;14.30;99.90
4631;DHT22;2328;48.170;11.602;2022-10-28T20:47:55;14.20;99.90
4631;DHT22;2328;48.170;11.602;2022-10-28T20:50:24;14.20;99.90
4631;DHT22;2328;48.170;11.602;2022-10-28T20:52:58;14.20;99.90
4631;DHT22;2328;48.170;11.602;2022-10-28T20:55:30;14.20;99.90
4631;DHT22;2328;48.170;11.602;2022-10-28T20:57:58;14.30;99.90
4631;DHT22;2328;48.170;11.602;2022-10-28T21:00:31;14.30;99.90
4631;DHT22;2328;48.170;11.602;2022-10-28T21:03:09;14.30;99.90
4631;DHT22;2328;48.170;11.602;2022-10-28T21:05:41;14.30;99.90
4631;DHT22;2328;48.170;11.602;2022-10-28T21:08:13;14.40;99.90
4631;DHT22;2328;48.170;11.602;2022-10-28T21:10:43;14.40;99.90
4631;DHT22;2328;48.170;11.602;2022-10-28T21:13:15;14.40;99.90
4631;DHT22;2328;48.170;11.602;2022-10-28T21:15:47;14.40;99.90
4631;DHT22;2328;48.170;11.602;2022-10-28T21:18:32;14.30;99.90
4631;DHT22;2328;48.170;11.602;2022-10-28T21:21:14;14.30;99.90
4631;DHT22;2328;48.170;11.602;2022-10-28T21:23:43;14.20;99.90
4631;DHT22;2328;48.170;11.602;2022-10-28T21:26:13;14.20;99.90
4631;DHT22;2328;48.170;11.602;2022-10-28T21:28:47;14.20;99.90
4631;DHT22;2328;48.170;11.602;2022-10-28T21:31:19;14.10;99.90
4631;DHT22;2328;48.170;11.602;2022-10-28T21:33:53;14.10;99.90
4631;DHT22;2328;48.170;11.602;2022-10-28T21:36:28;14.00;99.90
4631;DHT22;2328;48.170;11.602;2022-10-28T21:38:59;14.00;99.90
4631;DHT22;2328;48.170;11.602;2022-10-28T21:41:36;14.00;99.90
4631;DHT22;2328;48.170;11.602;2022-10-28T21:44:10;14.00;99.90
4631;DHT22;2328;48.170;11.602;2022-10-28T21:46:48;13.90;99.90
4631;DHT22;2328;48.170;11.602;2022-10-28T21:49:44;13.90;99.90
4631;DHT22;2328;48.170;11.602;2022-10-28T21:52:29;13.90;99.90
4631;DHT22;2328;48.170;11.602;2022-10-28T21:55:11;13.90;99.90
4631;DHT22;2328;48.170;11.602;2022-10-28T21:58:12;13.90;99.90
4631;DHT22;2328;48.170;11.602;2022-10-28T22:00:45;13.90;99.90
4631;DHT22;2328;48.170;11.602;2022-10-28T22:03:27;13.90;99.90
4631;DHT22;2328;48.170;11.602;2022-10-28T22:06:11;13.90;99.90
4631;DHT22;2328;48.170;11.602;2022-10-28T22:08:43;13.90;99.90
4631;DHT22;2328;48.170;11.602;2022-10-28T22:11:21;13.90;99.90
4631;DHT22;2328;48.170;11.602;2022-10-28T22:14:35;13.90;99.90
4631;DHT22;2328;48.170;11.602;2022-10-28T22:16:54;13.90;99.90
4631;DHT22;2328;48.170;11.602;2022-10-28T22:19:40;13.80;99.90
4631;DHT22;2328;48.170;11.602;2022-10-28T22:22:24;13.80;99.90
4631;DHT22;2328;48.170;11.602;2022-10-28T22:25:36;13.70;99.90
4631;DHT22;2328;48.170;11.602;2022-10-28T22:28:21;13.70;99.90
4631;DHT22;2328;48.170;11.602;2022-10-28T22:30:59;13.70;99.90
4631;DHT22;2328;48.170;11.602;2022-10-28T22:33:35;13.70;99.90
4631;DHT22;2328;48.170;11.602;2022-10-28T22:36:10;13.60;99.90
4631;DHT22;2328;48.170;11.602;2022-10-28T22:38:49;13.60;99.90
4631;DHT22;2328;48.170;11.602;2022-10-28T22:41:20;13.60;99.90
4631;DHT22;2328;48.170;11.602;2022-10-28T22:43:56;13.50;99.90
4631;DHT22;2328;48.170;11.602;2022-10-28T22:46:36;13.50;99.90
4631;DHT22;2328;48.170;11.602;2022-10-28T22:49:12;13.50;99.90
4631;DHT22;2328;48.170;11.602;2022-10-28T22:51:41;13.40;99.90
4631;DHT22;2328;48.170;11.602;2022-10-28T22:54:35;13.40;99.90
4631;DHT22;2328;48.170;11.602;2022-10-28T22:57:06;13.40;99.90
4631;DHT22;2328;48.170;11.602;2022-10-28T22:59:41;13.40;99.90
4631;DHT22;2328;48.170;11.602;2022-10-28T23:02:21;13.40;99.90
4631;DHT22;2328;48.170;11.602;2022-10-28T23:05:03;13.30;99.90
4631;DHT22;2328;48.170;11.602;2022-10-28T23:07:50;13.20;99.90
4631;DHT22;2328;48.170;11.602;2022-10-28T23:10:31;13.20;99.90
4631;DHT22;2328;48.170;11.602;2022-10-28T23:13:09;13.20;99.90
4631;DHT22;2328;48.170;11.602;2022-10-28T23:15:46;13.10;99.90
4631;DHT22;2328;48.170;11.602;2022-10-28T23:18:25;13.00;99.90
4631;DHT22;2328;48.170;11.602;2022-10-28T23:21:05;13.00;99.90
4631;DHT22;2328;48.170;11.602;2022-10-28T23:23:40;12.90;99.90
4631;DHT22;2328;48.170;11.602;2022-10-28T23:26:16;12.80;99.90
4631;DHT22;2328;48.170;11.602;2022-10-28T23:28:56;12.70;99.90
4631;DHT22;2328;48.170;11.602;2022-10-28T23:31:28;12.60;99.90
4631;DHT22;2328;48.170;11.602;2022-10-28T23:34:11;12.60;99.90
4631;DHT22;2328;48.170;11.602;2022-10-28T23:36:41;12.50;99.90
4631;DHT22;2328;48.170;11.602;2022-10-28T23:39:15;12.50;99.90
4631;DHT22;2328;48.170;11.602;2022-10-28T23:41:50;12.50;99.90
4631;DHT22;2328;48.170;11.602;2022-10-28T23:44:29;12.50;99.90
4631;DHT22;2328;48.170;11.602;2022-10-28T23:47:00;12.50;99.90
4631;DHT22;2328;48.170;11.602;2022-10-28T23:49:34;12.40;99.90
4631;DHT22;2328;48.170;11.602;2022-10-28T23:52:04;12.40;99.90
4631;DHT22;2328;48.170;11.602;2022-10-28T23:54:35;12.30;99.90
4631;DHT22;2328;48.170;11.602;2022-10-28T23:57:09;12.20;99.90
4631;DHT22;2328;48.170;11.602;2022-10-28T23:59:46;12.20;99.90
